EKAH/AAR METAR and TAF weather

Enter ICAO airport designator
Station Type Date Time Source
EKAH METAR 2021/06/24 05:50 UTC NOAA

EKAH 240550Z AUTO 28004KT 250V320 9999 SCT061/// 14/11 Q1021


Station Type Date Time Source
EKAH Decoded METAR 2021/06/24 05:50 UTC NOAA

Tirstrup, Denmark (EKAH) 56-18N 010-37E 25M
Jun 24, 2021 - 01:50 AM EDT / 2021.06.24 0550 UTC
Wind: from the W (280 degrees) at 5 MPH (4 KT) (direction variable):0
Visibility: greater than 7 mile(s):0
Sky conditions: partly cloudy
Temperature: 57 F (14 C)
Dew Point: 51 F (11 C)
Relative Humidity: 82%
Pressure (altimeter): 30.15 in. Hg (1021 hPa)
ob: EKAH 240550Z AUTO 28004KT 250V320 9999 SCT061/// 14/11 Q1021
cycle: 6

Station Type Date Time Source
EKAH TAF 2021/06/24 06:31 UTC NOAA

TAF EKAH 240501Z 2406/2506 31006KT 9999 SCT030
TEMPO 2503/2505 BKN012

Example: see airport list